sensor_id;sensor_type;location;lat;lon;timestamp;pressure;altitude;pressure_sealevel;temperature;humidity
49461;BME280;35355;49.198;-0.368;2023-02-18T00:00:10;102333.63;;;10.65;84.16
49461;BME280;35355;49.198;-0.368;2023-02-18T00:02:37;102323.78;;;10.64;84.46
49461;BME280;35355;49.198;-0.368;2023-02-18T00:05:03;102330.31;;;10.63;84.18
49461;BME280;35355;49.198;-0.368;2023-02-18T00:07:33;102333.63;;;10.65;84.23
49461;BME280;35355;49.198;-0.368;2023-02-18T00:09:58;102328.19;;;10.65;83.99
49461;BME280;35355;49.198;-0.368;2023-02-18T00:12:23;102329.22;;;10.64;84.51
49461;BME280;35355;49.198;-0.368;2023-02-18T00:14:49;102330.09;;;10.65;84.10
49461;BME280;35355;49.198;-0.368;2023-02-18T00:17:14;102324.22;;;10.61;84.42
49461;BME280;35355;49.198;-0.368;2023-02-18T00:19:39;102322.38;;;10.55;84.01
49461;BME280;35355;49.198;-0.368;2023-02-18T00:22:05;102328.28;;;10.52;84.15
49461;BME280;35355;49.198;-0.368;2023-02-18T00:24:30;102331.69;;;10.47;84.28
49461;BME280;35355;49.198;-0.368;2023-02-18T00:26:55;102326.47;;;10.46;84.50
49461;BME280;35355;49.198;-0.368;2023-02-18T00:29:21;102326.22;;;10.47;84.45
49461;BME280;35355;49.198;-0.368;2023-02-18T00:31:46;102330.88;;;10.47;84.75
49461;BME280;35355;49.198;-0.368;2023-02-18T00:34:12;102320.41;;;10.44;84.55
49461;BME280;35355;49.198;-0.368;2023-02-18T00:36:38;102324.16;;;10.43;84.88
49461;BME280;35355;49.198;-0.368;2023-02-18T00:39:06;102318.09;;;10.41;84.79
49461;BME280;35355;49.198;-0.368;2023-02-18T00:41:33;102326.28;;;10.41;84.42
49461;BME280;35355;49.198;-0.368;2023-02-18T00:43:59;102322.72;;;10.40;84.67
49461;BME280;35355;49.198;-0.368;2023-02-18T00:46:25;102327.94;;;10.42;84.62
49461;BME280;35355;49.198;-0.368;2023-02-18T00:48:51;102318.50;;;10.44;84.77
49461;BME280;35355;49.198;-0.368;2023-02-18T00:51:16;102313.63;;;10.46;84.95
49461;BME280;35355;49.198;-0.368;2023-02-18T00:53:44;102317.81;;;10.49;85.04
49461;BME280;35355;49.198;-0.368;2023-02-18T00:56:10;102315.91;;;10.49;85.20
49461;BME280;35355;49.198;-0.368;2023-02-18T00:58:36;102310.22;;;10.51;84.62
49461;BME280;35355;49.198;-0.368;2023-02-18T01:01:02;102304.34;;;10.54;84.64
49461;BME280;35355;49.198;-0.368;2023-02-18T01:03:28;102300.75;;;10.53;85.19
49461;BME280;35355;49.198;-0.368;2023-02-18T01:05:54;102297.81;;;10.55;84.79
49461;BME280;35355;49.198;-0.368;2023-02-18T01:08:20;102295.09;;;10.55;85.06
49461;BME280;35355;49.198;-0.368;2023-02-18T01:10:47;102294.63;;;10.58;84.92
49461;BME280;35355;49.198;-0.368;2023-02-18T01:13:14;102294.63;;;10.58;85.21
49461;BME280;35355;49.198;-0.368;2023-02-18T01:15:40;102288.34;;;10.58;85.24
49461;BME280;35355;49.198;-0.368;2023-02-18T01:18:06;102294.63;;;10.58;85.27
49461;BME280;35355;49.198;-0.368;2023-02-18T01:20:36;102287.06;;;10.60;85.05
49461;BME280;35355;49.198;-0.368;2023-02-18T01:23:03;102285.38;;;10.59;85.13
49461;BME280;35355;49.198;-0.368;2023-02-18T01:25:29;102279.09;;;10.59;84.96
49461;BME280;35355;49.198;-0.368;2023-02-18T01:27:55;102278.88;;;10.60;85.07
49461;BME280;35355;49.198;-0.368;2023-02-18T01:30:22;102282.66;;;10.59;84.79
49461;BME280;35355;49.198;-0.368;2023-02-18T01:32:47;102273.19;;;10.62;85.02
49461;BME280;35355;49.198;-0.368;2023-02-18T01:35:14;102266.06;;;10.61;84.98
49461;BME280;35355;49.198;-0.368;2023-02-18T01:37:42;102269.84;;;10.60;85.00
49461;BME280;35355;49.198;-0.368;2023-02-18T01:40:09;102263.53;;;10.59;84.89
49461;BME280;35355;49.198;-0.368;2023-02-18T01:42:35;102269.59;;;10.61;84.77
49461;BME280;35355;49.198;-0.368;2023-02-18T01:48:08;102269.22;;;10.58;84.41
49461;BME280;35355;49.198;-0.368;2023-02-18T01:50:37;102276.59;;;10.57;84.70
49461;BME280;35355;49.198;-0.368;2023-02-18T01:53:03;102270.28;;;10.57;84.58
49461;BME280;35355;49.198;-0.368;2023-02-18T01:55:29;102263.16;;;10.56;84.92
49461;BME280;35355;49.198;-0.368;2023-02-18T01:57:55;102272.41;;;10.55;84.80
49461;BME280;35355;49.198;-0.368;2023-02-18T02:00:20;102274.09;;;10.56;84.89
49461;BME280;35355;49.198;-0.368;2023-02-18T02:02:48;102269.47;;;10.56;84.60
49461;BME280;35355;49.198;-0.368;2023-02-18T02:05:15;102260.22;;;10.57;84.83
49461;BME280;35355;49.198;-0.368;2023-02-18T02:07:41;102264.59;;;10.58;84.89
49461;BME280;35355;49.198;-0.368;2023-02-18T02:10:09;102263.53;;;10.59;84.53
49461;BME280;35355;49.198;-0.368;2023-02-18T02:13:06;102265.22;;;10.60;84.77
49461;BME280;35355;49.198;-0.368;2023-02-18T02:15:43;102261.88;;;10.58;84.67
49461;BME280;35355;49.198;-0.368;2023-02-18T02:18:29;102260.22;;;10.57;84.47
49461;BME280;35355;49.198;-0.368;2023-02-18T02:34:40;102249.94;;;10.52;84.35
49461;BME280;35355;49.198;-0.368;2023-02-18T02:37:13;102252.66;;;10.52;84.63
49461;BME280;35355;49.198;-0.368;2023-02-18T02:39:56;102240.94;;;10.52;84.54
49461;BME280;35355;49.198;-0.368;2023-02-18T02:50:55;102233.78;;;10.51;84.10
49461;BME280;35355;49.198;-0.368;2023-02-18T02:53:30;102237.59;;;10.50;84.33
49461;BME280;35355;49.198;-0.368;2023-02-18T02:55:57;102243.06;;;10.50;84.31
49461;BME280;35355;49.198;-0.368;2023-02-18T02:58:23;102238.41;;;10.50;84.22
49461;BME280;35355;49.198;-0.368;2023-02-18T03:01:05;102236.50;;;10.51;84.01
49461;BME280;35355;49.198;-0.368;2023-02-18T03:07:44;102230.47;;;10.49;84.25
49461;BME280;35355;49.198;-0.368;2023-02-18T03:12:22;102231.34;;;10.43;84.41
49461;BME280;35355;49.198;-0.368;2023-02-18T03:15:06;102223.78;;;10.45;84.35
49461;BME280;35355;49.198;-0.368;2023-02-18T03:17:37;102227.59;;;10.44;84.22
49461;BME280;35355;49.198;-0.368;2023-02-18T03:20:13;102226.50;;;10.45;84.13
49461;BME280;35355;49.198;-0.368;2023-02-18T03:22:42;102221.72;;;10.40;84.15
49461;BME280;35355;49.198;-0.368;2023-02-18T03:25:09;102224.91;;;10.37;84.19
49461;BME280;35355;49.198;-0.368;2023-02-18T03:27:58;102220.25;;;10.38;84.16
49461;BME280;35355;49.198;-0.368;2023-02-18T03:30:32;102224.06;;;10.37;84.18
49461;BME280;35355;49.198;-0.368;2023-02-18T03:33:00;102217.34;;;10.32;83.95
49461;BME280;35355;49.198;-0.368;2023-02-18T03:35:27;102214.00;;;10.30;84.42
49461;BME280;35355;49.198;-0.368;2023-02-18T03:37:59;102221.34;;;10.37;83.99
49461;BME280;35355;49.198;-0.368;2023-02-18T03:40:28;102230.59;;;10.35;84.28
49461;BME280;35355;49.198;-0.368;2023-02-18T03:42:53;102226.81;;;10.37;84.24
49461;BME280;35355;49.198;-0.368;2023-02-18T03:45:20;102220.91;;;10.40;84.19
49461;BME280;35355;49.198;-0.368;2023-02-18T03:47:46;102218.16;;;10.40;84.04
49461;BME280;35355;49.198;-0.368;2023-02-18T03:50:11;102208.28;;;10.39;84.02
49461;BME280;35355;49.198;-0.368;2023-02-18T03:52:37;102210.56;;;10.42;83.88
49461;BME280;35355;49.198;-0.368;2023-02-18T03:55:06;102210.34;;;10.43;84.32
49461;BME280;35355;49.198;-0.368;2023-02-18T03:57:32;102212.25;;;10.43;83.80
49461;BME280;35355;49.198;-0.368;2023-02-18T03:59:57;102218.31;;;10.45;83.94
49461;BME280;35355;49.198;-0.368;2023-02-18T04:02:22;102214.97;;;10.43;83.85
49461;BME280;35355;49.198;-0.368;2023-02-18T04:04:48;102223.78;;;10.45;84.14
49461;BME280;35355;49.198;-0.368;2023-02-18T04:07:13;102217.50;;;10.44;83.92
49461;BME280;35355;49.198;-0.368;2023-02-18T04:09:39;102215.81;;;10.43;83.79
49461;BME280;35355;49.198;-0.368;2023-02-18T04:12:04;102217.50;;;10.44;83.84
49461;BME280;35355;49.198;-0.368;2023-02-18T04:14:29;102224.22;;;10.42;83.89
49461;BME280;35355;49.198;-0.368;2023-02-18T04:16:55;102217.72;;;10.43;84.07
49461;BME280;35355;49.198;-0.368;2023-02-18T04:19:20;102222.13;;;10.44;84.30
49461;BME280;35355;49.198;-0.368;2023-02-18T04:21:45;102216.66;;;10.44;84.01
49461;BME280;35355;49.198;-0.368;2023-02-18T04:24:11;102220.44;;;10.43;83.94
49461;BME280;35355;49.198;-0.368;2023-02-18T04:26:36;102216.03;;;10.42;83.99
49461;BME280;35355;49.198;-0.368;2023-02-18T04:29:02;102221.25;;;10.43;84.28
49461;BME280;35355;49.198;-0.368;2023-02-18T04:31:27;102222.31;;;10.42;84.26
49461;BME280;35355;49.198;-0.368;2023-02-18T04:33:53;102216.72;;;10.37;84.33
49461;BME280;35355;49.198;-0.368;2023-02-18T04:36:18;102220.91;;;10.40;84.38
49461;BME280;35355;49.198;-0.368;2023-02-18T04:38:43;102219.22;;;10.39;84.23
49461;BME280;35355;49.198;-0.368;2023-02-18T04:41:09;102232.41;;;10.42;84.13
49461;BME280;35355;49.198;-0.368;2023-02-18T04:43:37;102224.22;;;10.42;84.11
49461;BME280;35355;49.198;-0.368;2023-02-18T04:46:02;102226.34;;;10.40;84.24
49461;BME280;35355;49.198;-0.368;2023-02-18T04:48:28;102223.22;;;10.36;84.33
49461;BME280;35355;49.198;-0.368;2023-02-18T04:50:53;102227.41;;;10.39;84.39
49461;BME280;35355;49.198;-0.368;2023-02-18T04:53:18;102220.03;;;10.39;84.02
49461;BME280;35355;49.198;-0.368;2023-02-18T04:55:50;102220.91;;;10.40;84.17
49461;BME280;35355;49.198;-0.368;2023-02-18T04:58:17;102218.16;;;10.40;83.97
49461;BME280;35355;49.198;-0.368;2023-02-18T05:00:43;102213.97;;;10.37;84.25
49461;BME280;35355;49.198;-0.368;2023-02-18T05:03:08;102215.44;;;10.40;83.94
49461;BME280;35355;49.198;-0.368;2023-02-18T05:05:34;102217.09;;;10.41;83.66
49461;BME280;35355;49.198;-0.368;2023-02-18T05:08:00;102207.91;;;10.35;84.08
49461;BME280;35355;49.198;-0.368;2023-02-18T05:10:25;102205.78;;;10.37;83.81
49461;BME280;35355;49.198;-0.368;2023-02-18T05:12:50;102210.44;;;10.37;84.14
49461;BME280;35355;49.198;-0.368;2023-02-18T05:15:16;102205.41;;;10.33;83.70
49461;BME280;35355;49.198;-0.368;2023-02-18T05:17:41;102209.78;;;10.34;83.94
49461;BME280;35355;49.198;-0.368;2023-02-18T05:20:08;102206.25;;;10.34;83.69
49461;BME280;35355;49.198;-0.368;2023-02-18T05:22:33;102202.03;;;10.31;83.87
49461;BME280;35355;49.198;-0.368;2023-02-18T05:24:58;102194.50;;;10.33;84.08
49461;BME280;35355;49.198;-0.368;2023-02-18T05:27:24;102194.88;;;10.30;83.98
49461;BME280;35355;49.198;-0.368;2023-02-18T05:29:49;102198.69;;;10.29;83.90
49461;BME280;35355;49.198;-0.368;2023-02-18T05:52:20;102178.47;;;9.55;83.76
49461;BME280;35355;49.198;-0.368;2023-02-18T05:54:46;102181.22;;;9.55;84.33
49461;BME280;35355;49.198;-0.368;2023-02-18T05:57:14;102173.22;;;9.60;84.24
49461;BME280;35355;49.198;-0.368;2023-02-18T05:59:40;102173.16;;;9.66;84.47
49461;BME280;35355;49.198;-0.368;2023-02-18T06:02:06;102180.22;;;9.74;84.47
49461;BME280;35355;49.198;-0.368;2023-02-18T06:04:31;102176.44;;;9.82;84.43
49461;BME280;35355;49.198;-0.368;2023-02-18T06:06:57;102175.53;;;9.88;84.70
49461;BME280;35355;49.198;-0.368;2023-02-18T06:09:22;102169.63;;;9.91;84.37
49461;BME280;35355;49.198;-0.368;2023-02-18T06:11:48;102175.25;;;9.96;84.21
49461;BME280;35355;49.198;-0.368;2023-02-18T06:14:13;102165.56;;;10.00;84.65
49461;BME280;35355;49.198;-0.368;2023-02-18T06:16:38;102174.97;;;10.05;84.42
49461;BME280;35355;49.198;-0.368;2023-02-18T06:19:04;102170.13;;;10.07;84.35
49461;BME280;35355;49.198;-0.368;2023-02-18T06:21:29;102163.16;;;10.11;84.06
49461;BME280;35355;49.198;-0.368;2023-02-18T06:23:55;102168.19;;;10.14;83.97
49461;BME280;35355;49.198;-0.368;2023-02-18T06:26:20;102169.41;;;10.18;83.90
49461;BME280;35355;49.198;-0.368;2023-02-18T06:28:45;102167.72;;;10.17;84.52
49461;BME280;35355;49.198;-0.368;2023-02-18T06:31:11;102169.41;;;10.18;84.19
49461;BME280;35355;49.198;-0.368;2023-02-18T06:33:36;102170.22;;;10.18;84.05
49461;BME280;35355;49.198;-0.368;2023-02-18T06:36:05;102169.19;;;10.19;83.75
49461;BME280;35355;49.198;-0.368;2023-02-18T06:38:32;102179.88;;;10.21;83.88
49461;BME280;35355;49.198;-0.368;2023-02-18T06:40:58;102176.09;;;10.22;84.08
49461;BME280;35355;49.198;-0.368;2023-02-18T06:43:24;102174.19;;;10.23;84.13
49461;BME280;35355;49.198;-0.368;2023-02-18T06:45:50;102176.91;;;10.23;83.92
49461;BME280;35355;49.198;-0.368;2023-02-18T06:48:15;102170.63;;;10.22;83.70
49461;BME280;35355;49.198;-0.368;2023-02-18T06:50:41;102184.88;;;10.24;83.90
49461;BME280;35355;49.198;-0.368;2023-02-18T06:53:07;102180.72;;;10.22;83.70
49461;BME280;35355;49.198;-0.368;2023-02-18T06:55:32;102183.66;;;10.20;83.99
49461;BME280;35355;49.198;-0.368;2023-02-18T06:57:59;102177.38;;;10.19;83.96
49461;BME280;35355;49.198;-0.368;2023-02-18T07:00:25;102177.59;;;10.18;84.09
49461;BME280;35355;49.198;-0.368;2023-02-18T07:02:50;102180.31;;;10.18;83.62
49461;BME280;35355;49.198;-0.368;2023-02-18T07:05:15;102183.66;;;10.20;83.71
49461;BME280;35355;49.198;-0.368;2023-02-18T07:07:41;102182.81;;;10.19;84.00
49461;BME280;35355;49.198;-0.368;2023-02-18T07:10:07;102183.03;;;10.18;83.47
49461;BME280;35355;49.198;-0.368;2023-02-18T07:12:32;102183.66;;;10.20;83.59
49461;BME280;35355;49.198;-0.368;2023-02-18T07:14:58;102183.22;;;10.23;83.87
49461;BME280;35355;49.198;-0.368;2023-02-18T07:17:23;102189.50;;;10.24;83.50
49461;BME280;35355;49.198;-0.368;2023-02-18T07:19:49;102186.56;;;10.25;83.37
49461;BME280;35355;49.198;-0.368;2023-02-18T07:22:14;102180.28;;;10.25;83.64
49461;BME280;35355;49.198;-0.368;2023-02-18T07:24:40;102180.03;;;10.26;83.72
49461;BME280;35355;49.198;-0.368;2023-02-18T07:27:05;102192.38;;;10.29;83.39
49461;BME280;35355;49.198;-0.368;2023-02-18T07:29:31;102186.94;;;10.29;83.40
49461;BME280;35355;49.198;-0.368;2023-02-18T07:31:56;102189.44;;;10.30;83.21
49461;BME280;35355;49.198;-0.368;2023-02-18T07:34:22;102191.09;;;10.31;83.36
49461;BME280;35355;49.198;-0.368;2023-02-18T07:36:47;102196.34;;;10.33;83.31
49461;BME280;35355;49.198;-0.368;2023-02-18T07:39:12;102196.34;;;10.33;83.33
49461;BME280;35355;49.198;-0.368;2023-02-18T07:41:38;102189.25;;;10.32;82.89
49461;BME280;35355;49.198;-0.368;2023-02-18T07:44:04;102192.38;;;10.35;83.07
49461;BME280;35355;49.198;-0.368;2023-02-18T07:46:29;102195.69;;;10.38;83.23
49461;BME280;35355;49.198;-0.368;2023-02-18T07:48:56;102194.19;;;10.42;82.92
49461;BME280;35355;49.198;-0.368;2023-02-18T07:51:21;102194.19;;;10.42;83.10
49461;BME280;35355;49.198;-0.368;2023-02-18T07:53:46;102194.81;;;10.44;82.74
49461;BME280;35355;49.198;-0.368;2023-02-18T07:56:12;102198.97;;;10.46;82.80
49461;BME280;35355;49.198;-0.368;2023-02-18T07:58:38;102198.16;;;10.46;82.92
49461;BME280;35355;49.198;-0.368;2023-02-18T08:01:05;102206.94;;;10.48;82.84
49461;BME280;35355;49.198;-0.368;2023-02-18T08:03:32;102210.53;;;10.48;82.79
49461;BME280;35355;49.198;-0.368;2023-02-18T08:05:58;102208.63;;;10.49;83.07
49461;BME280;35355;49.198;-0.368;2023-02-18T08:08:27;102206.72;;;10.49;82.91
49461;BME280;35355;49.198;-0.368;2023-02-18T08:10:55;102211.94;;;10.51;82.54
49461;BME280;35355;49.198;-0.368;2023-02-18T08:13:21;102219.53;;;10.49;82.66
49461;BME280;35355;49.198;-0.368;2023-02-18T08:15:47;102222.88;;;10.51;82.69
49461;BME280;35355;49.198;-0.368;2023-02-18T08:18:18;102226.69;;;10.50;82.67
49461;BME280;35355;49.198;-0.368;2023-02-18T08:20:44;102226.28;;;10.46;83.09
49461;BME280;35355;49.198;-0.368;2023-02-18T08:23:12;102233.63;;;10.46;83.07
49461;BME280;35355;49.198;-0.368;2023-02-18T08:25:37;102231.13;;;10.44;83.35
49461;BME280;35355;49.198;-0.368;2023-02-18T08:28:03;102238.88;;;10.47;82.94
49461;BME280;35355;49.198;-0.368;2023-02-18T08:30:29;102235.69;;;10.50;82.97
49461;BME280;35355;49.198;-0.368;2023-02-18T08:32:54;102243.06;;;10.50;83.08
49461;BME280;35355;49.198;-0.368;2023-02-18T08:35:19;102245.59;;;10.45;83.14
49461;BME280;35355;49.198;-0.368;2023-02-18T08:37:46;102233.03;;;10.44;83.08
49461;BME280;35355;49.198;-0.368;2023-02-18T08:40:12;102243.50;;;10.47;83.40
49461;BME280;35355;49.198;-0.368;2023-02-18T08:42:38;102242.44;;;10.48;83.23
49461;BME280;35355;49.198;-0.368;2023-02-18T08:45:04;102235.91;;;10.49;83.64
49461;BME280;35355;49.198;-0.368;2023-02-18T08:47:30;102230.22;;;10.50;83.35
49461;BME280;35355;49.198;-0.368;2023-02-18T08:49:56;102233.13;;;10.56;83.07
49461;BME280;35355;49.198;-0.368;2023-02-18T08:52:21;102237.06;;;10.60;83.18
49461;BME280;35355;49.198;-0.368;2023-02-18T08:54:47;102238.53;;;10.62;83.30
49461;BME280;35355;49.198;-0.368;2023-02-18T08:57:12;102235.97;;;10.67;83.26
49461;BME280;35355;49.198;-0.368;2023-02-18T08:59:38;102231.94;;;10.70;83.01
49461;BME280;35355;49.198;-0.368;2023-02-18T09:02:03;102233.53;;;10.78;83.50
49461;BME280;35355;49.198;-0.368;2023-02-18T09:04:29;102238.91;;;10.84;83.22
49461;BME280;35355;49.198;-0.368;2023-02-18T09:06:55;102235.97;;;10.86;83.28
49461;BME280;35355;49.198;-0.368;2023-02-18T09:09:20;102247.28;;;10.90;83.00
49461;BME280;35355;49.198;-0.368;2023-02-18T09:11:45;102244.56;;;10.90;82.97
49461;BME280;35355;49.198;-0.368;2023-02-18T09:14:11;102245.97;;;10.92;83.26
49461;BME280;35355;49.198;-0.368;2023-02-18T09:16:37;102259.19;;;10.95;82.77
49461;BME280;35355;49.198;-0.368;2023-02-18T09:19:03;102247.19;;;10.96;83.03
49461;BME280;35355;49.198;-0.368;2023-02-18T09:21:29;102247.78;;;10.98;83.04
49461;BME280;35355;49.198;-0.368;2023-02-18T09:23:54;102254.56;;;10.96;82.74
49461;BME280;35355;49.198;-0.368;2023-02-18T09:26:20;102261.69;;;10.97;83.34
49461;BME280;35355;49.198;-0.368;2023-02-18T09:28:48;102248.47;;;10.94;83.28
49461;BME280;35355;49.198;-0.368;2023-02-18T09:31:17;102252.66;;;10.96;83.11
49461;BME280;35355;49.198;-0.368;2023-02-18T09:33:45;102246.75;;;10.99;83.35
49461;BME280;35355;49.198;-0.368;2023-02-18T09:36:11;102257.44;;;11.01;83.02
49461;BME280;35355;49.198;-0.368;2023-02-18T09:38:37;102257.66;;;10.99;83.14
49461;BME280;35355;49.198;-0.368;2023-02-18T09:41:05;102264.81;;;11.00;83.47
49461;BME280;35355;49.198;-0.368;2023-02-18T09:43:37;102254.47;;;11.02;83.48
49461;BME280;35355;49.198;-0.368;2023-02-18T09:46:34;102260.13;;;11.08;83.61
49461;BME280;35355;49.198;-0.368;2023-02-18T09:49:05;102260.13;;;11.08;83.59
49461;BME280;35355;49.198;-0.368;2023-02-18T09:51:31;102255.25;;;11.10;83.65
49461;BME280;35355;49.198;-0.368;2023-02-18T09:53:56;102256.22;;;11.15;83.98
49461;BME280;35355;49.198;-0.368;2023-02-18T09:56:28;102260.09;;;11.26;83.67
49461;BME280;35355;49.198;-0.368;2023-02-18T09:58:57;102265.25;;;11.34;83.86
49461;BME280;35355;49.198;-0.368;2023-02-18T10:01:30;102260.31;;;11.43;83.40
49461;BME280;35355;49.198;-0.368;2023-02-18T10:04:03;102255.84;;;11.49;83.30
49461;BME280;35355;49.198;-0.368;2023-02-18T10:06:33;102256.59;;;11.56;83.17
49461;BME280;35355;49.198;-0.368;2023-02-18T10:09:02;102243.03;;;11.61;83.33
49461;BME280;35355;49.198;-0.368;2023-02-18T10:11:31;102250.53;;;11.66;82.90
49461;BME280;35355;49.198;-0.368;2023-02-18T10:13:58;102246.16;;;11.76;83.24
49461;BME280;35355;49.198;-0.368;2023-02-18T10:16:29;102249.66;;;11.84;82.68
49461;BME280;35355;49.198;-0.368;2023-02-18T10:18:56;102248.31;;;11.93;82.94
49461;BME280;35355;49.198;-0.368;2023-02-18T10:21:26;102242.19;;;11.91;82.19
49461;BME280;35355;49.198;-0.368;2023-02-18T10:24:05;102245.56;;;11.93;82.61
49461;BME280;35355;49.198;-0.368;2023-02-18T10:26:34;102245.56;;;11.93;81.94
49461;BME280;35355;49.198;-0.368;2023-02-18T10:29:01;102251.47;;;11.90;81.87
49461;BME280;35355;49.198;-0.368;2023-02-18T10:31:34;102248.94;;;11.88;82.08
49461;BME280;35355;49.198;-0.368;2023-02-18T10:36:58;102241.28;;;11.67;81.64
49461;BME280;35355;49.198;-0.368;2023-02-18T10:42:17;102237.25;;;11.69;81.85
49461;BME280;35355;49.198;-0.368;2023-02-18T10:47:53;102238.94;;;11.82;81.54
49461;BME280;35355;49.198;-0.368;2023-02-18T10:50:36;102235.50;;;11.87;82.32
49461;BME280;35355;49.198;-0.368;2023-02-18T10:55:44;102236.44;;;12.11;81.12
49461;BME280;35355;49.198;-0.368;2023-02-18T11:01:15;102239.66;;;12.20;81.04
49461;BME280;35355;49.198;-0.368;2023-02-18T11:04:04;102240.50;;;12.20;80.75
49461;BME280;35355;49.198;-0.368;2023-02-18T11:06:33;102239.03;;;12.18;80.56
49461;BME280;35355;49.198;-0.368;2023-02-18T11:09:02;102235.97;;;12.14;80.69
49461;BME280;35355;49.198;-0.368;2023-02-18T11:11:31;102227.50;;;12.16;81.07
49461;BME280;35355;49.198;-0.368;2023-02-18T11:14:00;102243.25;;;12.32;80.97
49461;BME280;35355;49.198;-0.368;2023-02-18T11:16:43;102241.38;;;12.56;80.81
49461;BME280;35355;49.198;-0.368;2023-02-18T11:19:32;102236.22;;;12.72;80.37
49461;BME280;35355;49.198;-0.368;2023-02-18T11:22:18;102231.78;;;12.82;80.20
49461;BME280;35355;49.198;-0.368;2023-02-18T11:24:44;102220.09;;;12.87;79.14
49461;BME280;35355;49.198;-0.368;2023-02-18T11:27:29;102223.94;;;12.98;79.44
49461;BME280;35355;49.198;-0.368;2023-02-18T11:30:14;102228.44;;;13.04;79.08
49461;BME280;35355;49.198;-0.368;2023-02-18T11:32:42;102220.31;;;13.09;78.35
49461;BME280;35355;49.198;-0.368;2023-02-18T11:35:16;102224.72;;;13.10;78.78
49461;BME280;35355;49.198;-0.368;2023-02-18T11:37:43;102226.28;;;13.06;78.09
49461;BME280;35355;49.198;-0.368;2023-02-18T11:40:20;102236.09;;;13.02;78.63
49461;BME280;35355;49.198;-0.368;2023-02-18T11:42:46;102222.59;;;13.01;78.08
49461;BME280;35355;49.198;-0.368;2023-02-18T11:45:27;102224.63;;;13.05;78.78
49461;BME280;35355;49.198;-0.368;2023-02-18T11:48:17;102216.41;;;13.05;78.45
49461;BME280;35355;49.198;-0.368;2023-02-18T11:50:44;102218.44;;;12.98;77.74
49461;BME280;35355;49.198;-0.368;2023-02-18T11:53:33;102228.69;;;12.91;78.38
49461;BME280;35355;49.198;-0.368;2023-02-18T11:56:02;102233.00;;;12.87;78.18
49461;BME280;35355;49.198;-0.368;2023-02-18T11:58:37;102223.69;;;12.88;78.20
49461;BME280;35355;49.198;-0.368;2023-02-18T12:01:05;102218.22;;;12.88;78.18
49461;BME280;35355;49.198;-0.368;2023-02-18T12:03:55;102211.31;;;12.85;78.14
49461;BME280;35355;49.198;-0.368;2023-02-18T12:06:37;102209.78;;;12.77;78.40
49461;BME280;35355;49.198;-0.368;2023-02-18T12:14:50;102213.34;;;12.66;78.00
49461;BME280;35355;49.198;-0.368;2023-02-18T12:20:25;102204.09;;;12.55;78.54
49461;BME280;35355;49.198;-0.368;2023-02-18T12:23:11;102207.66;;;12.56;78.28
49461;BME280;35355;49.198;-0.368;2023-02-18T12:26:06;102201.19;;;12.62;78.14
49461;BME280;35355;49.198;-0.368;2023-02-18T12:31:44;102198.22;;;12.75;78.34
49461;BME280;35355;49.198;-0.368;2023-02-18T12:34:29;102185.13;;;12.77;78.38
49461;BME280;35355;49.198;-0.368;2023-02-18T12:40:18;102189.03;;;12.93;78.48
49461;BME280;35355;49.198;-0.368;2023-02-18T13:05:43;102191.97;;;13.04;77.04
49461;BME280;35355;49.198;-0.368;2023-02-18T13:08:34;102181.03;;;12.92;77.21
49461;BME280;35355;49.198;-0.368;2023-02-18T13:11:19;102190.09;;;12.92;77.64
49461;BME280;35355;49.198;-0.368;2023-02-18T13:14:00;102186.53;;;12.92;77.69
49461;BME280;35355;49.198;-0.368;2023-02-18T13:16:28;102183.78;;;12.92;77.26
49461;BME280;35355;49.198;-0.368;2023-02-18T13:18:58;102155.03;;;12.94;77.20
49461;BME280;35355;49.198;-0.368;2023-02-18T13:21:26;102172.91;;;12.97;77.04
49461;BME280;35355;49.198;-0.368;2023-02-18T13:23:55;102166.47;;;13.03;77.41
49461;BME280;35355;49.198;-0.368;2023-02-18T13:26:25;102170.50;;;13.12;77.24
49461;BME280;35355;49.198;-0.368;2023-02-18T13:29:02;102174.63;;;13.15;76.91
49461;BME280;35355;49.198;-0.368;2023-02-18T13:31:43;102177.38;;;13.15;77.30
49461;BME280;35355;49.198;-0.368;2023-02-18T13:34:13;102166.16;;;13.16;77.00
49461;BME280;35355;49.198;-0.368;2023-02-18T13:36:50;102165.09;;;13.18;76.97
49461;BME280;35355;49.198;-0.368;2023-02-18T13:39:20;102166.41;;;13.15;76.85
49461;BME280;35355;49.198;-0.368;2023-02-18T13:41:48;102161.66;;;13.10;76.81
49461;BME280;35355;49.198;-0.368;2023-02-18T13:46:53;102151.19;;;13.07;77.27
49461;BME280;35355;49.198;-0.368;2023-02-18T13:49:22;102153.34;;;13.05;77.03
49461;BME280;35355;49.198;-0.368;2023-02-18T13:51:50;102149.75;;;13.05;76.98
49461;BME280;35355;49.198;-0.368;2023-02-18T13:54:41;102157.38;;;13.14;77.42
49461;BME280;35355;49.198;-0.368;2023-02-18T13:57:18;102143.50;;;13.21;77.13
49461;BME280;35355;49.198;-0.368;2023-02-18T13:59:50;102143.25;;;13.23;77.06
49461;BME280;35355;49.198;-0.368;2023-02-18T14:21:42;102142.31;;;12.88;76.97
49461;BME280;35355;49.198;-0.368;2023-02-18T14:24:11;102137.00;;;12.81;76.82
49461;BME280;35355;49.198;-0.368;2023-02-18T14:26:46;102132.00;;;12.78;77.85
49461;BME280;35355;49.198;-0.368;2023-02-18T14:29:18;102135.19;;;12.75;77.62
49461;BME280;35355;49.198;-0.368;2023-02-18T14:31:55;102127.47;;;12.72;77.54
49461;BME280;35355;49.198;-0.368;2023-02-18T14:50:49;102107.81;;;12.63;78.23
49461;BME280;35355;49.198;-0.368;2023-02-18T14:53:19;102112.38;;;12.58;78.18
49461;BME280;35355;49.198;-0.368;2023-02-18T14:55:48;102106.31;;;12.56;77.92
49461;BME280;35355;49.198;-0.368;2023-02-18T14:58:37;102110.09;;;12.55;77.93
49461;BME280;35355;49.198;-0.368;2023-02-18T15:01:15;102111.06;;;12.49;78.14
49461;BME280;35355;49.198;-0.368;2023-02-18T15:03:41;102108.72;;;12.40;77.95
49461;BME280;35355;49.198;-0.368;2023-02-18T15:08:54;102112.88;;;12.31;78.35
49461;BME280;35355;49.198;-0.368;2023-02-18T15:11:23;102098.28;;;12.25;78.61
49461;BME280;35355;49.198;-0.368;2023-02-18T15:13:50;102105.88;;;12.23;78.70